createdAt,value
2022-09-23T00:02:47.831Z,8.63
2022-09-23T00:12:52.372Z,8.88
2022-09-23T00:22:55.272Z,9.07
2022-09-23T00:33:00.352Z,8.38
2022-09-23T00:43:03.304Z,9.35
2022-09-23T00:53:12.318Z,11.98
2022-09-23T01:03:15.648Z,11.32
2022-09-23T01:13:26.468Z,12.80
2022-09-23T01:24:04.501Z,12.80
2022-09-23T01:34:15.166Z,12.30
2022-09-23T01:44:22.997Z,13.43
2022-09-23T01:54:32.769Z,12.98
2022-09-23T02:04:41.326Z,14.90
2022-09-23T02:14:50.065Z,13.82
2022-09-23T02:24:54.779Z,14.77
2022-09-23T02:35:05.810Z,14.03
2022-09-23T02:45:09.383Z,13.93
2022-09-23T02:55:17.876Z,13.57
2022-09-23T03:05:25.838Z,12.40
2022-09-23T03:15:36.914Z,13.95
2022-09-23T03:25:44.750Z,15.35
2022-09-23T03:36:11.862Z,12.88
2022-09-23T03:46:18.369Z,13.05
2022-09-23T03:56:22.720Z,12.20
2022-09-23T04:06:25.801Z,12.73
2022-09-23T04:16:30.246Z,11.93
2022-09-23T04:26:34.779Z,8.57
2022-09-23T04:36:39.102Z,12.50
2022-09-23T04:46:42.609Z,13.10
2022-09-23T04:56:46.998Z,13.32
2022-09-23T05:06:49.941Z,12.23
2022-09-23T05:16:54.350Z,12.57
2022-09-23T05:26:57.282Z,10.90
2022-09-23T05:37:01.611Z,11.70
2022-09-23T05:47:04.823Z,9.50
2022-09-23T05:57:09.330Z,11.02
2022-09-23T06:07:12.515Z,8.40
2022-09-23T06:17:16.939Z,10.73
2022-09-23T06:27:19.962Z,10.20
2022-09-23T06:37:24.510Z,10.15
2022-09-23T06:47:27.555Z,10.97
2022-09-23T06:57:34.134Z,7.97
2022-09-23T07:07:38.302Z,10.52
2022-09-23T07:17:43.966Z,10.27
2022-09-23T07:27:48.917Z,9.23
2022-09-23T07:37:53.756Z,10.23
2022-09-23T07:47:57.184Z,9.25
2022-09-23T07:58:01.914Z,9.00
2022-09-23T08:08:07.186Z,9.13
2022-09-23T08:18:11.542Z,8.95
2022-09-23T08:28:16.254Z,9.07
2022-09-23T08:38:20.779Z,7.95
2022-09-23T08:48:30.331Z,8.53
2022-09-23T08:58:44.543Z,7.55
2022-09-23T09:08:55.548Z,6.97
2022-09-23T09:19:01.450Z,6.60
2022-09-23T09:29:23.809Z,5.93
2022-09-23T09:39:35.170Z,5.43
2022-09-23T09:49:47.217Z,5.55
2022-09-23T09:59:52.227Z,4.50
2022-09-23T10:10:01.835Z,4.60
2022-09-23T10:20:17.475Z,5.88
2022-09-23T10:30:23.449Z,5.93
2022-09-23T10:40:49.267Z,5.07
2022-09-23T10:51:00.599Z,5.10
2022-09-23T11:01:20.088Z,6.35
2022-09-23T11:11:36.414Z,6.25
2022-09-23T11:21:57.340Z,5.30
2022-09-23T11:32:12.425Z,6.00
2022-09-23T11:42:22.670Z,4.82
2022-09-23T11:52:30.687Z,4.38
2022-09-23T12:03:04.955Z,3.00
2022-09-23T12:13:22.707Z,3.53
2022-09-23T12:23:52.785Z,3.60
2022-09-23T12:33:56.308Z,3.10
2022-09-23T12:44:25.549Z,3.20
2022-09-23T12:54:28.808Z,3.33
2022-09-23T13:05:01.316Z,4.73
2022-09-23T13:15:21.004Z,5.40
2022-09-23T13:25:34.418Z,5.20
2022-09-23T13:35:39.319Z,4.67
2022-09-23T13:45:46.175Z,4.70
2022-09-23T13:56:01.597Z,5.28
2022-09-23T14:06:11.178Z,4.95
2022-09-23T14:16:17.173Z,5.45
2022-09-23T14:26:22.474Z,5.45
2022-09-23T14:36:44.049Z,6.30
2022-09-23T14:46:57.501Z,6.57
2022-09-23T14:57:01.482Z,6.73
2022-09-23T15:07:15.930Z,6.38
2022-09-23T15:27:33.556Z,7.80
2022-09-23T15:37:36.878Z,9.75
2022-09-23T15:47:41.290Z,13.88
2022-09-23T16:07:49.430Z,8.18
2022-09-23T16:17:52.922Z,10.57
2022-09-23T16:28:00.154Z,10.07
2022-09-23T16:38:07.830Z,10.10
2022-09-23T16:48:19.987Z,10.95
2022-09-23T16:58:23.135Z,9.75
2022-09-23T17:08:27.597Z,10.32
2022-09-23T17:18:31.536Z,8.88
2022-09-23T17:28:36.245Z,8.73
2022-09-23T17:48:46.247Z,8.80
2022-09-23T17:58:50.609Z,8.80
2022-09-23T18:08:56.437Z,7.55
2022-09-23T18:19:01.036Z,8.40
2022-09-23T18:39:08.992Z,11.97
2022-09-23T18:49:30.942Z,14.43
2022-09-23T18:59:33.970Z,15.18
2022-09-23T19:09:38.568Z,16.30
2022-09-23T19:19:41.771Z,21.77
2022-09-23T19:29:47.596Z,21.35
2022-09-23T19:39:50.610Z,22.20
2022-09-23T19:49:55.028Z,22.50
2022-09-23T19:59:58.196Z,21.50
2022-09-23T20:10:02.627Z,27.02
2022-09-23T20:20:06.009Z,23.23
2022-09-23T20:30:12.036Z,26.00
2022-09-23T20:40:15.233Z,25.83
2022-09-23T20:50:19.819Z,22.85
2022-09-23T21:00:23.000Z,19.05
2022-09-23T21:10:27.354Z,16.50
2022-09-23T21:20:30.585Z,15.13
2022-09-23T21:30:35.262Z,16.50
2022-09-23T21:40:55.930Z,16.23
2022-09-23T21:51:02.248Z,19.10
2022-09-23T22:01:08.982Z,16.35
2022-09-23T22:11:35.327Z,19.10
2022-09-23T22:21:40.631Z,17.13
2022-09-23T22:32:02.771Z,17.52
2022-09-23T22:42:05.774Z,18.77
2022-09-23T22:52:11.380Z,17.77
2022-09-23T23:02:15.466Z,20.92
2022-09-23T23:12:21.062Z,22.13
2022-09-23T23:22:28.427Z,22.40
2022-09-23T23:32:32.861Z,20.65
2022-09-23T23:42:35.818Z,20.63
2022-09-23T23:52:40.229Z,22.02
